createdAt,value
2023-10-30T00:00:33.216Z,100077.52
2023-10-30T00:01:35.556Z,100080.17
2023-10-30T00:02:38.623Z,100079.44
2023-10-30T00:03:41.161Z,100079.44
2023-10-30T00:04:43.425Z,100076.88
2023-10-30T00:05:45.618Z,100076.14
2023-10-30T00:06:47.985Z,100077.85
2023-10-30T00:07:50.141Z,100077.00
2023-10-30T00:08:52.392Z,100080.38
2023-10-30T00:09:54.987Z,100083.98
2023-10-30T00:10:57.236Z,100081.45
2023-10-30T00:11:59.378Z,100087.70
2023-10-30T00:13:01.550Z,100082.52
2023-10-30T00:14:04.135Z,100085.17
2023-10-30T00:15:07.246Z,100079.86
2023-10-30T00:16:10.772Z,100078.92
2023-10-30T00:17:13.042Z,100072.81
2023-10-30T00:18:15.266Z,100088.73
2023-10-30T00:19:17.760Z,100088.86
2023-10-30T00:20:20.028Z,100089.80
2023-10-30T00:21:22.189Z,100091.52
2023-10-30T00:22:24.294Z,100089.72
2023-10-30T00:23:26.287Z,100089.72
2023-10-30T00:24:28.471Z,100088.73
2023-10-30T00:25:30.591Z,100090.48
2023-10-30T00:26:33.088Z,100093.13
2023-10-30T00:27:35.266Z,100085.23
2023-10-30T00:28:37.552Z,100087.06
2023-10-30T00:29:39.717Z,100084.41
2023-10-30T00:30:42.024Z,100081.84
2023-10-30T00:31:44.267Z,100088.95
2023-10-30T00:32:46.419Z,100086.52
2023-10-30T00:33:48.576Z,100082.06
2023-10-30T00:34:50.953Z,100087.37
2023-10-30T00:35:53.099Z,100085.69
2023-10-30T00:36:55.456Z,100088.43
2023-10-30T00:37:57.682Z,100090.14
2023-10-30T00:38:59.885Z,100082.27
2023-10-30T00:40:02.407Z,100078.80
2023-10-30T00:41:08.188Z,100078.80
2023-10-30T00:42:10.340Z,100086.76
2023-10-30T00:43:12.365Z,100077.94
2023-10-30T00:44:14.496Z,100080.81
2023-10-30T00:45:16.641Z,100080.89
2023-10-30T00:46:18.965Z,100077.52
2023-10-30T00:47:21.115Z,100081.23
2023-10-30T00:48:23.249Z,100077.84
2023-10-30T00:49:25.337Z,100086.75
2023-10-30T00:50:28.796Z,100078.06
2023-10-30T00:51:30.995Z,100081.77
2023-10-30T00:52:33.158Z,100082.72
2023-10-30T00:53:35.316Z,100085.49
2023-10-30T00:54:37.726Z,100081.13
2023-10-30T00:55:39.868Z,100079.55
2023-10-30T00:56:42.499Z,100078.08
2023-10-30T00:57:44.752Z,100085.06
2023-10-30T00:58:46.913Z,100078.16
2023-10-30T00:59:49.533Z,100086.24
2023-10-30T01:00:52.179Z,100075.64
2023-10-30T01:01:54.313Z,100077.31
2023-10-30T01:02:56.685Z,100084.41
2023-10-30T01:03:59.351Z,100076.37
2023-10-30T01:05:01.832Z,100077.10
2023-10-30T01:06:05.415Z,100076.16
2023-10-30T01:07:07.656Z,100079.75
2023-10-30T01:08:09.914Z,100074.45
2023-10-30T01:09:12.194Z,100074.45
2023-10-30T01:10:15.970Z,100069.05
2023-10-30T01:11:18.123Z,100070.00
2023-10-30T01:12:20.655Z,100074.45
2023-10-30T01:13:23.537Z,100073.51
2023-10-30T01:14:26.343Z,100071.59
2023-10-30T01:15:28.625Z,100071.70
2023-10-30T01:16:30.994Z,100076.03
2023-10-30T01:17:33.166Z,100071.59
2023-10-30T01:18:35.694Z,100069.88
2023-10-30T01:19:37.941Z,100069.79
2023-10-30T01:20:40.377Z,100067.14
2023-10-30T01:21:42.719Z,100065.42
2023-10-30T01:22:44.986Z,100076.03
2023-10-30T01:23:47.672Z,100068.08
2023-10-30T01:24:49.769Z,100070.86
2023-10-30T01:25:51.908Z,100075.19
2023-10-30T01:26:54.169Z,100075.19
2023-10-30T01:27:56.275Z,100070.73
2023-10-30T01:28:58.597Z,100068.08
2023-10-30T01:30:00.712Z,100074.23
2023-10-30T01:31:03.172Z,100076.25
2023-10-30T01:32:06.090Z,100069.27
2023-10-30T01:33:08.444Z,100078.08
2023-10-30T01:34:11.010Z,100073.72
2023-10-30T01:35:13.339Z,100072.01
2023-10-30T01:36:15.711Z,100074.57
2023-10-30T01:37:18.209Z,100068.20
2023-10-30T01:38:20.361Z,100067.34
2023-10-30T01:39:22.650Z,100071.70
2023-10-30T01:40:27.838Z,100074.45
2023-10-30T01:41:29.267Z,100074.36
2023-10-30T01:42:31.478Z,100074.36
2023-10-30T01:43:34.025Z,100072.53
2023-10-30T01:44:39.886Z,100072.44
2023-10-30T01:45:42.137Z,100073.30
2023-10-30T01:46:44.621Z,100073.30
2023-10-30T01:47:46.972Z,100074.03
2023-10-30T01:48:49.353Z,100077.53
2023-10-30T01:49:53.216Z,100075.83
2023-10-30T01:50:56.880Z,100073.08
2023-10-30T01:51:59.067Z,100080.06
2023-10-30T01:53:02.552Z,100074.77
2023-10-30T01:54:05.425Z,100075.83
2023-10-30T01:55:08.718Z,100075.83
2023-10-30T01:56:12.814Z,100068.60
2023-10-30T01:57:16.955Z,100072.23
2023-10-30T01:58:19.381Z,100075.61
2023-10-30T01:59:21.647Z,100074.77
2023-10-30T02:00:24.278Z,100065.95
2023-10-30T02:01:27.269Z,100065.00
2023-10-30T02:02:30.136Z,100070.19
2023-10-30T02:03:34.264Z,100067.45
2023-10-30T02:04:37.756Z,100067.45
2023-10-30T02:05:40.732Z,100057.56
2023-10-30T02:06:43.595Z,100062.02
2023-10-30T02:07:45.861Z,100063.61
2023-10-30T02:08:48.652Z,100064.37
2023-10-30T02:09:51.304Z,100062.57
2023-10-30T02:10:54.078Z,100059.67
2023-10-30T02:11:56.196Z,100064.03
2023-10-30T02:12:58.402Z,100057.02
2023-10-30T02:14:00.550Z,100052.48
2023-10-30T02:15:03.012Z,100049.91
2023-10-30T02:16:06.531Z,100047.38
2023-10-30T02:17:08.829Z,100046.41
2023-10-30T02:18:11.037Z,100043.02
2023-10-30T02:19:16.965Z,100034.33
2023-10-30T02:20:19.432Z,100039.85
2023-10-30T02:21:21.606Z,100031.04
2023-10-30T02:22:23.748Z,100039.00
2023-10-30T02:23:25.903Z,100031.04
2023-10-30T02:24:28.237Z,100027.66
2023-10-30T02:25:32.027Z,100027.66
2023-10-30T02:26:34.428Z,100030.19
2023-10-30T02:27:36.574Z,100026.80
2023-10-30T02:28:38.638Z,100037.41
2023-10-30T02:29:40.997Z,100035.83
2023-10-30T02:30:43.364Z,100043.66
2023-10-30T02:31:46.116Z,100041.01
2023-10-30T02:32:48.429Z,100041.01
2023-10-30T02:33:50.728Z,100044.52
2023-10-30T02:34:53.029Z,100039.33
2023-10-30T02:35:55.106Z,100047.29
2023-10-30T02:36:57.543Z,100044.73
2023-10-30T02:37:59.590Z,100041.13
2023-10-30T02:39:03.594Z,100040.28
2023-10-30T02:40:07.599Z,100043.05
2023-10-30T02:41:09.952Z,100044.00
2023-10-30T02:42:12.221Z,100040.61
2023-10-30T02:43:14.329Z,100047.92
2023-10-30T02:44:16.425Z,100042.62
2023-10-30T02:45:18.580Z,100049.72
2023-10-30T02:46:20.994Z,100050.58
2023-10-30T02:47:23.311Z,100045.39
2023-10-30T02:48:25.508Z,100043.81
2023-10-30T02:49:28.029Z,100045.61
2023-10-30T02:50:31.733Z,100036.80
2023-10-30T02:51:33.942Z,100040.30
2023-10-30T02:52:36.257Z,100040.30
2023-10-30T02:53:39.837Z,100037.65
2023-10-30T02:54:43.238Z,100039.33
2023-10-30T02:55:45.508Z,100042.10
2023-10-30T02:56:47.701Z,100035.94
2023-10-30T02:57:49.904Z,100040.30
2023-10-30T02:58:52.468Z,100040.39
2023-10-30T02:59:54.624Z,100047.41
2023-10-30T03:00:57.918Z,100043.81
2023-10-30T03:02:00.169Z,100043.90
2023-10-30T03:03:02.883Z,100043.90
2023-10-30T03:04:05.945Z,100052.59
2023-10-30T03:05:08.712Z,100046.67
2023-10-30T03:06:11.516Z,100049.53
2023-10-30T03:07:13.673Z,100049.63
2023-10-30T03:08:15.841Z,100063.73
2023-10-30T03:09:17.866Z,100069.16
2023-10-30T03:10:20.104Z,100066.72
2023-10-30T03:11:22.448Z,100061.50
2023-10-30T03:12:24.635Z,100062.48
2023-10-30T03:13:26.876Z,100064.16
2023-10-30T03:14:28.871Z,100057.17
2023-10-30T03:15:31.092Z,100054.61
2023-10-30T03:16:33.798Z,100058.11
2023-10-30T03:17:36.452Z,100052.81
2023-10-30T03:18:38.911Z,100045.83
2023-10-30T03:19:41.255Z,100039.55
2023-10-30T03:20:43.615Z,100033.19
2023-10-30T03:21:45.762Z,100036.81
2023-10-30T03:22:47.931Z,100032.45
2023-10-30T03:23:50.201Z,100034.16
2023-10-30T03:24:52.557Z,100036.70
2023-10-30T03:25:54.662Z,100042.00
2023-10-30T03:26:57.144Z,100034.89
2023-10-30T03:27:59.438Z,100031.39
2023-10-30T03:29:01.694Z,100040.29
2023-10-30T03:30:05.196Z,100045.59
2023-10-30T03:31:08.890Z,100039.34
2023-10-30T03:32:11.137Z,100034.98
2023-10-30T03:33:13.419Z,100040.41
2023-10-30T03:34:15.788Z,100033.40
2023-10-30T03:35:18.527Z,100035.23
2023-10-30T03:36:22.140Z,100043.06
2023-10-30T03:37:24.484Z,100033.31
2023-10-30T03:38:26.641Z,100033.19
2023-10-30T03:39:28.749Z,100027.89
2023-10-30T03:40:31.103Z,100027.03
2023-10-30T03:41:33.321Z,100022.80
2023-10-30T03:42:35.702Z,100021.97
2023-10-30T03:43:38.043Z,100021.33
2023-10-30T03:44:40.197Z,100028.42
2023-10-30T03:45:42.512Z,100040.95
2023-10-30T03:46:44.932Z,100034.06
2023-10-30T03:47:47.204Z,100027.25
2023-10-30T03:48:49.461Z,100021.30
2023-10-30T03:49:51.665Z,100025.66
2023-10-30T03:50:53.971Z,100026.40
2023-10-30T03:51:56.120Z,100026.31
2023-10-30T03:52:58.274Z,100026.31
2023-10-30T03:54:00.434Z,100024.52
2023-10-30T03:55:02.694Z,100029.70
2023-10-30T03:56:06.086Z,100029.70
2023-10-30T03:57:08.456Z,100020.89
2023-10-30T03:58:10.805Z,100034.06
2023-10-30T03:59:12.965Z,100029.70
2023-10-30T04:00:15.871Z,100030.55
2023-10-30T04:01:18.020Z,100027.91
2023-10-30T04:02:20.152Z,100033.08
2023-10-30T04:03:22.393Z,100032.14
2023-10-30T04:04:24.659Z,100027.69
2023-10-30T04:05:26.935Z,100021.41
2023-10-30T04:06:29.527Z,100024.06
2023-10-30T04:07:31.694Z,100022.18
2023-10-30T04:08:33.808Z,100029.16
2023-10-30T04:09:36.031Z,100023.77
2023-10-30T04:10:38.335Z,100023.56
2023-10-30T04:11:40.595Z,100018.13
2023-10-30T04:12:42.802Z,100024.17
2023-10-30T04:13:45.247Z,100024.08
2023-10-30T04:14:47.367Z,100023.11
2023-10-30T04:15:49.549Z,100021.22
2023-10-30T04:16:52.106Z,100020.24
2023-10-30T04:17:54.394Z,100019.30
2023-10-30T04:18:56.623Z,100019.09
2023-10-30T04:19:58.777Z,100018.88
2023-10-30T04:21:01.523Z,100019.48
2023-10-30T04:22:03.716Z,100012.29
2023-10-30T04:23:05.927Z,100020.03
2023-10-30T04:24:08.834Z,100020.77
2023-10-30T04:25:11.195Z,100017.05
2023-10-30T04:26:13.367Z,100012.59
2023-10-30T04:27:15.512Z,100011.52
2023-10-30T04:28:17.686Z,100013.33
2023-10-30T04:29:19.931Z,100016.09
2023-10-30T04:30:22.215Z,100016.83
2023-10-30T04:31:24.415Z,100016.83
2023-10-30T04:32:26.793Z,100006.95
2023-10-30T04:33:29.104Z,100012.98
2023-10-30T04:34:31.338Z,100012.98
2023-10-30T04:35:33.503Z,100018.20
2023-10-30T04:36:35.799Z,100017.47
2023-10-30T04:37:38.022Z,100017.69
2023-10-30T04:38:40.023Z,100015.98
2023-10-30T04:39:42.138Z,100013.33
2023-10-30T04:40:44.580Z,100015.98
2023-10-30T04:41:46.841Z,100014.27
2023-10-30T04:42:49.022Z,100019.58
2023-10-30T04:43:51.272Z,100012.59
2023-10-30T04:44:53.622Z,100017.90
2023-10-30T04:45:55.761Z,100021.50
2023-10-30T04:46:58.253Z,100020.64
2023-10-30T04:48:00.497Z,100020.64
2023-10-30T04:49:02.566Z,100018.97
2023-10-30T04:50:05.820Z,100017.13
2023-10-30T04:51:07.987Z,100017.13
2023-10-30T04:52:10.140Z,100016.19
2023-10-30T04:53:12.219Z,100012.59
2023-10-30T04:54:14.977Z,100009.09
2023-10-30T04:55:17.221Z,100014.39
2023-10-30T04:56:19.496Z,100011.73
2023-10-30T04:57:21.604Z,100005.58
2023-10-30T04:58:23.654Z,100009.94
2023-10-30T04:59:25.930Z,100008.14
2023-10-30T05:00:28.403Z,100007.29
2023-10-30T05:01:30.630Z,100003.66
2023-10-30T05:02:32.847Z,99996.46
2023-10-30T05:03:38.220Z,99992.73
2023-10-30T05:04:40.527Z,100000.57
2023-10-30T05:05:42.735Z,99996.98
2023-10-30T05:06:45.268Z,99994.32
2023-10-30T05:07:48.468Z,99995.91
2023-10-30T05:08:50.924Z,99999.50
2023-10-30T05:09:53.122Z,100002.89
2023-10-30T05:10:55.445Z,99992.27
2023-10-30T05:11:57.550Z,99985.17
2023-10-30T05:12:59.753Z,99991.23
2023-10-30T05:14:01.911Z,99990.25
2023-10-30T05:16:14.723Z,99991.95
2023-10-30T05:17:16.801Z,99989.31
2023-10-30T05:18:19.048Z,99987.38
2023-10-30T05:19:21.130Z,99989.09
2023-10-30T05:20:23.426Z,99985.36
2023-10-30T05:21:25.584Z,99986.98
2023-10-30T05:22:27.657Z,99989.42
2023-10-30T05:23:29.782Z,99993.74
2023-10-30T05:24:31.986Z,99987.48
2023-10-30T05:25:42.541Z,99982.05
2023-10-30T05:26:39.225Z,99982.05
2023-10-30T05:27:41.582Z,99992.58
2023-10-30T05:28:43.757Z,99988.98
2023-10-30T05:29:45.876Z,99992.36
2023-10-30T05:30:48.157Z,99996.69
2023-10-30T05:31:50.379Z,99996.47
2023-10-30T05:32:52.768Z,99993.59
2023-10-30T05:33:54.993Z,99995.93
2023-10-30T05:34:57.174Z,99998.46
2023-10-30T05:35:59.306Z,99999.09
2023-10-30T05:37:01.675Z,99995.45
2023-10-30T05:38:03.829Z,100003.10
2023-10-30T05:39:05.985Z,100010.00
2023-10-30T05:40:12.685Z,100007.21
2023-10-30T05:41:14.886Z,100011.45
2023-10-30T05:42:17.166Z,100010.37
2023-10-30T05:43:19.325Z,100007.49
2023-10-30T05:44:21.489Z,100010.91
2023-10-30T05:45:23.658Z,100013.31
2023-10-30T05:46:26.040Z,100013.08
2023-10-30T05:47:28.502Z,100014.66
2023-10-30T05:48:30.901Z,100012.54
2023-10-30T05:49:33.039Z,100008.90
2023-10-30T05:50:35.352Z,100012.19
2023-10-30T05:51:37.545Z,100008.31
2023-10-30T05:52:39.699Z,100006.28
2023-10-30T05:53:42.504Z,99998.09
2023-10-30T05:54:44.671Z,100006.69
2023-10-30T05:55:46.969Z,100003.80
2023-10-30T05:56:49.648Z,100006.33
2023-10-30T05:57:51.832Z,100008.62
2023-10-30T05:58:53.984Z,100005.73
2023-10-30T05:59:56.175Z,100002.98
2023-10-30T06:00:58.465Z,100006.98
2023-10-30T06:02:00.856Z,100009.28
2023-10-30T06:03:03.003Z,100013.42
2023-10-30T06:04:05.619Z,100013.91
2023-10-30T06:05:08.807Z,100008.22
2023-10-30T06:06:11.501Z,100015.97
2023-10-30T06:07:13.768Z,100019.34
2023-10-30T06:08:15.881Z,100020.82
2023-10-30T06:09:18.089Z,100029.52
2023-10-30T06:10:20.916Z,100020.36
2023-10-30T06:11:23.410Z,100019.13
2023-10-30T06:12:25.630Z,100030.39
2023-10-30T06:13:27.838Z,100025.66
2023-10-30T06:14:29.995Z,100031.59
2023-10-30T06:15:32.399Z,100024.23
2023-10-30T06:16:34.771Z,100026.66
2023-10-30T06:17:36.959Z,100026.45
2023-10-30T06:18:39.119Z,100028.02
2023-10-30T06:19:41.440Z,100021.61
2023-10-30T06:20:45.625Z,100024.03
2023-10-30T06:21:47.792Z,100012.41
2023-10-30T06:22:49.925Z,100020.87
2023-10-30T06:23:51.977Z,100010.97
2023-10-30T06:24:54.082Z,100015.20
2023-10-30T06:25:56.280Z,100012.16
2023-10-30T06:26:58.852Z,100010.22
2023-10-30T06:28:01.005Z,100014.34
2023-10-30T06:29:03.129Z,100009.02
2023-10-30T06:30:07.687Z,100012.16
2023-10-30T06:31:19.905Z,100012.88
2023-10-30T06:32:22.154Z,100009.86
2023-10-30T06:33:25.122Z,100009.63
2023-10-30T06:34:27.367Z,100013.11
2023-10-30T06:35:29.747Z,100009.38
2023-10-30T06:36:33.062Z,100010.95
2023-10-30T06:37:35.329Z,100013.47
2023-10-30T06:38:37.976Z,100009.00
2023-10-30T06:39:40.112Z,100015.03
2023-10-30T06:40:42.561Z,100007.77
2023-10-30T06:41:44.723Z,100011.28
2023-10-30T06:42:47.122Z,100011.03
2023-10-30T06:43:49.450Z,100007.98
2023-10-30T06:44:51.701Z,100004.22
2023-10-30T06:46:04.586Z,100001.31
2023-10-30T06:47:06.880Z,99998.41
2023-10-30T06:48:09.087Z,99999.86
2023-10-30T06:49:11.388Z,99999.48
2023-10-30T06:50:13.938Z,100003.59
2023-10-30T06:51:16.355Z,100006.02
2023-10-30T06:52:18.652Z,100003.06
2023-10-30T06:53:20.785Z,99997.62
2023-10-30T06:54:22.948Z,100006.08
2023-10-30T06:56:35.625Z,100003.83
2023-10-30T06:57:37.846Z,100002.77
2023-10-30T06:58:39.820Z,100008.45
2023-10-30T06:59:41.913Z,100002.73
2023-10-30T07:00:45.269Z,100004.29
2023-10-30T07:01:47.630Z,99998.59
2023-10-30T07:02:49.739Z,99998.34
2023-10-30T07:03:52.000Z,99997.34
2023-10-30T07:04:54.175Z,99999.77
2023-10-30T07:05:56.370Z,100008.36
2023-10-30T07:06:58.793Z,100006.55
2023-10-30T07:08:00.890Z,99998.40
2023-10-30T07:09:03.215Z,100000.84
2023-10-30T07:10:07.104Z,99999.03
2023-10-30T07:11:09.401Z,99998.88
2023-10-30T07:12:12.441Z,100009.44
2023-10-30T07:13:14.584Z,100006.63
2023-10-30T07:14:16.787Z,100013.52
2023-10-30T07:15:19.084Z,100014.23
2023-10-30T07:16:21.982Z,100005.97
2023-10-30T07:17:24.348Z,100006.71
2023-10-30T07:18:26.664Z,100001.09
2023-10-30T07:19:28.912Z,99999.02
2023-10-30T07:20:31.315Z,99996.23
2023-10-30T07:21:33.558Z,99993.42
2023-10-30T07:22:35.899Z,100001.16
2023-10-30T07:23:38.271Z,100004.42
2023-10-30T07:24:40.578Z,99995.31
2023-10-30T07:25:42.652Z,100000.24
2023-10-30T07:26:44.857Z,99998.28
2023-10-30T07:27:47.087Z,100003.23
2023-10-30T07:28:49.691Z,100001.87
2023-10-30T07:29:51.967Z,100001.61
2023-10-30T07:30:54.552Z,100002.86
2023-10-30T07:31:56.904Z,99996.30
2023-10-30T07:32:58.925Z,100002.22
2023-10-30T07:34:01.089Z,99996.62
2023-10-30T07:35:04.562Z,99995.50
2023-10-30T07:36:07.416Z,99999.58
2023-10-30T07:37:09.655Z,99989.60
2023-10-30T07:38:12.018Z,99991.19
2023-10-30T07:39:14.507Z,99997.93
2023-10-30T07:40:17.071Z,99998.78
2023-10-30T07:41:19.372Z,99998.52
2023-10-30T07:42:21.733Z,99994.02
2023-10-30T07:43:24.191Z,99994.58
2023-10-30T07:44:26.431Z,100000.35
2023-10-30T07:45:28.705Z,100001.78
2023-10-30T07:46:31.133Z,99998.97
2023-10-30T07:47:43.872Z,99998.70
2023-10-30T07:48:37.445Z,100003.66
2023-10-30T07:49:39.653Z,99998.86
2023-10-30T07:50:42.572Z,100000.29
2023-10-30T07:51:44.870Z,99998.20
2023-10-30T07:52:47.138Z,100002.30
2023-10-30T07:53:49.307Z,99998.50
2023-10-30T07:54:51.662Z,100010.89
2023-10-30T07:55:54.030Z,99997.27
2023-10-30T07:58:06.332Z,99995.86
2023-10-30T07:59:08.440Z,99999.39
2023-10-30T08:00:11.797Z,99997.27
2023-10-30T08:01:20.038Z,99994.31
2023-10-30T08:02:22.445Z,100004.73
2023-10-30T08:03:24.713Z,99999.11
2023-10-30T08:04:27.174Z,100006.98
2023-10-30T08:05:29.409Z,100006.16
2023-10-30T08:06:31.694Z,100013.06
2023-10-30T08:07:34.021Z,99999.53
2023-10-30T08:08:36.200Z,99999.41
2023-10-30T08:09:38.446Z,100007.44
2023-10-30T08:10:40.718Z,100006.43
2023-10-30T08:11:43.095Z,100006.31
2023-10-30T08:12:47.062Z,100009.68
2023-10-30T08:13:54.959Z,100006.85
2023-10-30T08:14:57.222Z,100008.67
2023-10-30T08:15:59.405Z,100006.31
2023-10-30T08:17:01.636Z,100001.66
2023-10-30T08:18:04.173Z,100005.30
2023-10-30T08:19:06.503Z,100007.01
2023-10-30T08:20:10.399Z,100002.63
2023-10-30T08:21:13.174Z,100004.33
2023-10-30T08:22:18.322Z,100003.33
2023-10-30T08:23:20.548Z,100001.78
2023-10-30T08:24:22.671Z,100007.13
2023-10-30T08:25:24.789Z,100006.16
2023-10-30T08:26:27.107Z,100004.33
2023-10-30T08:27:30.059Z,100006.16
2023-10-30T08:28:32.980Z,100002.63
2023-10-30T08:29:35.201Z,100006.16
2023-10-30T08:30:37.614Z,100001.78
2023-10-30T08:31:39.833Z,100000.11
2023-10-30T08:32:42.099Z,99996.59
2023-10-30T08:33:47.737Z,100001.94
2023-10-30T08:34:50.093Z,99998.41
2023-10-30T08:35:53.961Z,99998.29
2023-10-30T08:36:56.435Z,100002.51
2023-10-30T08:37:59.758Z,99999.68
2023-10-30T08:39:01.952Z,100005.45
2023-10-30T08:40:05.032Z,100002.66
2023-10-30T08:41:11.147Z,100003.50
2023-10-30T08:42:13.389Z,100000.67
2023-10-30T08:43:15.675Z,99998.00
2023-10-30T08:44:17.859Z,99993.34
2023-10-30T08:45:19.967Z,99994.05
2023-10-30T08:46:22.573Z,99992.22
2023-10-30T08:47:24.984Z,99986.75
2023-10-30T08:48:27.338Z,99997.16
2023-10-30T08:49:29.556Z,99998.72
2023-10-30T08:50:31.994Z,99993.09
2023-10-30T08:51:53.238Z,99987.58
2023-10-30T08:52:46.254Z,99986.60
2023-10-30T08:53:48.531Z,99990.83
2023-10-30T08:54:50.749Z,99986.01
2023-10-30T08:55:53.012Z,99990.39
2023-10-30T08:57:04.235Z,99986.73
2023-10-30T08:57:59.397Z,99989.25
2023-10-30T08:59:01.762Z,99986.58
2023-10-30T09:00:04.617Z,99982.08
2023-10-30T09:01:06.792Z,99990.80
2023-10-30T09:02:08.937Z,99982.77
2023-10-30T09:03:11.159Z,99977.30
2023-10-30T09:04:13.638Z,99981.52
2023-10-30T09:05:16.109Z,99982.20
2023-10-30T09:06:19.345Z,99983.91
2023-10-30T09:07:21.610Z,99985.30
2023-10-30T09:08:24.959Z,99982.20
2023-10-30T09:09:27.819Z,99984.73
2023-10-30T09:10:30.193Z,99987.81
2023-10-30T09:11:32.332Z,99980.47
2023-10-30T09:12:34.763Z,99979.34
2023-10-30T09:13:37.112Z,99979.05
2023-10-30T09:14:42.417Z,99976.25
2023-10-30T09:15:44.749Z,99986.67
2023-10-30T09:16:46.999Z,99982.73
2023-10-30T09:17:49.189Z,99981.59
2023-10-30T09:18:51.310Z,99979.77
2023-10-30T09:19:53.468Z,99978.63
2023-10-30T09:20:55.791Z,99978.50
2023-10-30T09:21:57.884Z,99969.33
2023-10-30T09:22:59.996Z,99977.08
2023-10-30T09:24:02.173Z,99976.63
2023-10-30T09:25:04.826Z,99978.16
2023-10-30T09:26:07.386Z,99973.50
2023-10-30T09:27:09.534Z,99970.40
2023-10-30T09:28:11.995Z,99968.12
2023-10-30T09:29:14.037Z,99965.84
2023-10-30T09:30:17.474Z,99967.20
2023-10-30T09:31:19.847Z,99962.28
2023-10-30T09:32:22.069Z,99962.67
2023-10-30T09:33:24.269Z,99957.83
2023-10-30T09:34:26.463Z,99961.06
2023-10-30T09:35:28.995Z,99959.80
2023-10-30T09:36:31.319Z,99961.16
2023-10-30T09:37:33.579Z,99957.20
2023-10-30T09:38:35.846Z,99951.67
2023-10-30T09:39:37.972Z,99954.91
2023-10-30T09:40:40.591Z,99955.46
2023-10-30T09:41:45.050Z,99954.31
2023-10-30T09:43:07.540Z,99962.87
2023-10-30T09:44:10.379Z,99968.10
2023-10-30T09:45:14.542Z,99954.23
2023-10-30T09:46:17.543Z,99958.15
2023-10-30T09:47:21.996Z,99964.19
2023-10-30T09:48:25.743Z,99956.56
2023-10-30T09:49:29.368Z,99955.28
2023-10-30T09:50:32.226Z,99958.51
2023-10-30T09:51:35.144Z,99954.67
2023-10-30T09:52:37.698Z,99948.33
2023-10-30T09:53:40.041Z,99954.38
2023-10-30T09:54:43.080Z,99947.98
2023-10-30T09:55:46.581Z,99950.53
2023-10-30T09:56:49.858Z,99945.00
2023-10-30T09:57:52.974Z,99947.92
2023-10-30T09:58:55.269Z,99940.25
2023-10-30T09:59:57.825Z,99935.13
2023-10-30T10:01:00.399Z,99934.65
2023-10-30T10:02:02.950Z,99935.56
2023-10-30T10:03:05.533Z,99934.94
2023-10-30T10:04:07.827Z,99924.40
2023-10-30T10:05:10.894Z,99942.39
2023-10-30T10:06:13.745Z,99937.25
2023-10-30T10:07:16.139Z,99937.62
2023-10-30T10:08:18.523Z,99936.00
2023-10-30T10:09:21.560Z,99933.51
2023-10-30T10:10:24.438Z,99932.03
2023-10-30T10:11:32.775Z,99930.44
2023-10-30T10:12:35.811Z,99929.95
2023-10-30T10:13:42.189Z,99928.78
2023-10-30T10:14:43.044Z,99928.64
2023-10-30T10:15:45.932Z,99924.93
2023-10-30T10:16:48.583Z,99917.72
2023-10-30T10:17:50.778Z,99924.93
2023-10-30T10:18:53.018Z,99928.29
2023-10-30T10:19:55.143Z,99921.25
2023-10-30T10:20:59.369Z,99930.98
2023-10-30T10:22:01.802Z,99924.44
2023-10-30T10:23:03.999Z,99923.98
2023-10-30T10:24:06.752Z,99935.40
2023-10-30T10:25:09.481Z,99927.87
2023-10-30T10:26:11.668Z,99924.02
2023-10-30T10:27:13.854Z,99931.75
2023-10-30T10:28:16.014Z,99933.41
2023-10-30T10:29:23.576Z,99929.73
2023-10-30T10:30:25.954Z,99933.27
2023-10-30T10:31:28.428Z,99929.56
2023-10-30T10:32:30.630Z,99927.72
2023-10-30T10:33:35.427Z,99929.77
2023-10-30T10:34:38.454Z,99926.09
2023-10-30T10:35:43.684Z,99920.39
2023-10-30T10:36:47.338Z,99914.84
2023-10-30T10:37:49.876Z,99918.72
2023-10-30T10:38:58.490Z,99909.48
2023-10-30T10:40:00.784Z,99920.58
2023-10-30T10:41:04.531Z,99919.41
2023-10-30T10:42:07.612Z,99915.55
2023-10-30T10:43:10.244Z,99918.76
2023-10-30T10:44:12.594Z,99910.37
2023-10-30T10:45:15.480Z,99918.11
2023-10-30T10:46:17.838Z,99914.24
2023-10-30T10:47:21.588Z,99919.63
2023-10-30T10:48:26.041Z,99908.87
2023-10-30T10:49:28.318Z,99911.55
2023-10-30T10:50:30.462Z,99902.64
2023-10-30T10:51:35.156Z,99904.34
2023-10-30T10:52:38.082Z,99899.95
2023-10-30T10:53:40.552Z,99905.33
2023-10-30T10:54:48.955Z,99912.55
2023-10-30T10:55:51.358Z,99902.64
2023-10-30T10:56:54.013Z,99904.48
2023-10-30T10:58:16.720Z,99905.33
2023-10-30T10:59:22.330Z,99894.24
2023-10-30T11:00:27.742Z,99900.14
2023-10-30T11:01:33.178Z,99902.66
2023-10-30T11:02:37.807Z,99901.66
2023-10-30T11:03:40.408Z,99896.09
2023-10-30T11:04:42.958Z,99895.25
2023-10-30T11:05:47.952Z,99899.30
2023-10-30T11:06:53.890Z,99898.31
2023-10-30T11:09:17.986Z,99898.69
2023-10-30T11:11:54.124Z,99892.13
2023-10-30T11:13:12.045Z,99891.27
2023-10-30T11:14:39.351Z,99893.12
2023-10-30T11:17:01.525Z,99885.03
2023-10-30T11:18:20.929Z,99893.47
2023-10-30T11:19:23.262Z,99883.88
2023-10-30T11:20:27.613Z,99889.25
2023-10-30T11:21:29.858Z,99878.96
2023-10-30T11:22:41.157Z,99879.47
2023-10-30T11:23:59.843Z,99869.20
2023-10-30T11:25:01.960Z,99876.95
2023-10-30T11:26:04.437Z,99873.22
2023-10-30T11:27:27.049Z,99870.38
2023-10-30T11:28:29.338Z,99865.64
2023-10-30T11:29:53.655Z,99874.05
2023-10-30T11:30:55.865Z,99866.47
2023-10-30T11:32:04.806Z,99863.44
2023-10-30T11:33:18.471Z,99854.86
2023-10-30T11:34:31.780Z,99865.28
2023-10-30T11:35:33.873Z,99859.90
2023-10-30T11:36:35.956Z,99857.86
2023-10-30T11:37:40.216Z,99855.02
2023-10-30T11:38:56.666Z,99853.98
2023-10-30T11:39:59.784Z,99854.83
2023-10-30T11:41:09.958Z,99859.55
2023-10-30T11:42:26.773Z,99858.52
2023-10-30T11:43:35.246Z,99856.02
2023-10-30T11:44:37.414Z,99856.02
2023-10-30T11:45:40.182Z,99857.02
2023-10-30T11:46:44.320Z,99853.32
2023-10-30T11:47:49.240Z,99855.17
2023-10-30T11:48:51.608Z,99857.02
2023-10-30T11:49:56.457Z,99852.66
2023-10-30T11:50:58.756Z,99857.02
2023-10-30T11:52:04.744Z,99850.81
2023-10-30T11:53:08.584Z,99858.71
2023-10-30T11:54:11.099Z,99849.63
2023-10-30T11:55:13.256Z,99852.32
2023-10-30T11:56:15.498Z,99848.78
2023-10-30T11:57:18.000Z,99840.70
2023-10-30T11:58:20.687Z,99841.55
2023-10-30T11:59:22.737Z,99843.05
2023-10-30T12:00:25.035Z,99845.55
2023-10-30T12:01:27.186Z,99836.47
2023-10-30T12:02:29.280Z,99836.28
2023-10-30T12:03:31.400Z,99840.66
2023-10-30T12:04:34.020Z,99846.70
2023-10-30T12:05:36.291Z,99835.77
2023-10-30T12:06:38.445Z,99836.59
2023-10-30T12:07:40.602Z,99839.28
2023-10-30T12:08:43.102Z,99829.34
2023-10-30T12:09:45.279Z,99832.89
2023-10-30T12:10:47.718Z,99831.89
2023-10-30T12:11:49.885Z,99829.84
2023-10-30T12:12:52.048Z,99826.15
2023-10-30T12:13:55.545Z,99822.61
2023-10-30T12:15:01.182Z,99825.30